Time;durP1;ratioP1;P1;durP2;ratioP2;P2;SDS_P1;SDS_P2;PMS_P1;PMS_P2;Temp;Humidity;BMP_temperature;BMP_pressure;BME280_temperature;BME280_humidity;BME280_pressure;Samples;Min_cycle;Max_cycle;Signal;HPM_P1;HPM_P2
2021/10/02 00:38:11;;;;;;;18.10;10.85;;;;;;;6.84;75.02;101717.98;1755761;81;21860;-70
2021/10/02 00:45:44;;;;;;;13.38;10.32;;;;;;;6.82;74.93;101715.89;1714017;81;21003;-70
2021/10/02 00:48:10;;;;;;;12.88;10.53;;;;;;;6.80;74.84;101711.16;1735160;81;20940;-70
2021/10/02 00:50:39;;;;;;;13.83;10.45;;;;;;;6.77;74.77;101715.24;1686863;81;22681;-70
2021/10/02 00:53:08;;;;;;;14.43;10.48;;;;;;;6.75;74.85;101719.68;1765832;80;20979;-70
2021/10/02 00:55:35;;;;;;;13.83;11.00;;;;;;;6.73;74.87;101712.33;1807694;78;21394;-70
2021/10/02 00:58:01;;;;;;;16.02;10.72;;;;;;;6.72;74.97;101709.78;1813149;78;20956;-69
2021/10/02 01:00:29;;;;;;;14.60;11.25;;;;;;;6.72;75.05;101715.03;1810579;78;21465;-69
2021/10/02 01:03:19;;;;;;;19.65;11.10;;;;;;;6.73;75.02;101712.80;1823706;78;21816;-69
2021/10/02 01:06:23;;;;;;;13.75;10.53;;;;;;;6.73;74.96;101712.33;1776963;80;20979;-69
2021/10/02 01:09:00;;;;;;;13.53;10.55;;;;;;;6.73;74.97;101716.73;1775139;80;21443;-70
2021/10/02 01:12:03;;;;;;;14.53;9.98;;;;;;;6.68;74.96;101707.75;1792791;78;20979;-69
2021/10/02 01:14:54;;;;;;;17.23;10.88;;;;;;;6.67;74.94;101708.67;1818033;78;21450;-69
2021/10/02 01:17:55;;;;;;;12.98;9.80;;;;;;;6.64;75.00;101707.92;1812029;78;21822;-69
2021/10/02 01:21:03;;;;;;;14.00;10.68;;;;;;;6.58;75.11;101708.59;1798494;78;21031;-69
2021/10/02 01:24:01;;;;;;;12.85;10.08;;;;;;;6.57;75.26;101713.91;1811491;78;21934;-70
2021/10/02 01:27:08;;;;;;;16.48;10.03;;;;;;;6.58;75.27;101709.91;1796486;78;21015;-70
2021/10/02 01:29:37;;;;;;;14.10;9.95;;;;;;;6.57;75.29;101710.83;1797197;78;21031;-69
2021/10/02 01:32:14;;;;;;;15.85;10.28;;;;;;;6.58;75.29;101714.30;1811325;78;21804;-70
2021/10/02 01:48:02;;;;;;;11.85;9.83;;;;;;;6.56;75.21;101719.62;1792963;78;21604;-70
2021/10/02 01:50:30;;;;;;;11.10;8.98;;;;;;;6.55;74.99;101718.34;1813740;78;20932;-70
2021/10/02 01:53:00;;;;;;;12.75;9.58;;;;;;;6.50;74.77;101717.70;1819949;78;20963;-70
2021/10/02 01:55:28;;;;;;;13.15;9.88;;;;;;;6.44;74.60;101713.54;1799604;78;21469;-70
2021/10/02 01:58:02;;;;;;;14.28;9.73;;;;;;;6.38;74.53;101716.89;1810067;78;21834;-69
2021/10/02 02:00:30;;;;;;;13.85;9.68;;;;;;;6.34;74.31;101721.39;1799537;78;20944;-69
2021/10/02 02:03:00;;;;;;;13.50;9.43;;;;;;;6.27;74.16;101715.56;1793303;80;20987;-69
2021/10/02 02:05:28;;;;;;;12.95;9.43;;;;;;;6.22;74.03;101718.81;1799172;78;20986;-69
2021/10/02 02:08:07;;;;;;;12.33;9.50;;;;;;;6.18;73.92;101717.70;1823637;78;21019;-70
2021/10/02 02:10:34;;;;;;;14.50;9.38;;;;;;;6.11;73.77;101711.83;1821062;78;22204;-70
2021/10/02 02:13:01;;;;;;;15.08;9.43;;;;;;;6.02;73.66;101714.81;1796193;78;21394;-70
2021/10/02 02:15:30;;;;;;;14.95;9.08;;;;;;;5.96;73.66;101713.27;1793301;80;20940;-69
2021/10/02 02:18:04;;;;;;;13.10;9.53;;;;;;;5.95;73.63;101711.56;1771711;78;21413;-70
2021/10/02 02:20:42;;;;;;;13.62;9.40;;;;;;;5.95;73.56;101717.27;1812245;78;20951;-69
2021/10/02 02:23:11;;;;;;;14.20;9.45;;;;;;;5.91;73.45;101711.75;1793657;78;21483;-69
2021/10/02 02:25:38;;;;;;;11.63;9.18;;;;;;;5.88;73.38;101717.91;1793409;78;20942;-69
2021/10/02 02:28:07;;;;;;;14.13;9.28;;;;;;;5.83;73.26;101715.94;1795764;78;21007;-71
2021/10/02 02:30:35;;;;;;;14.20;9.10;;;;;;;5.81;73.23;101714.30;1800959;78;21035;-70
2021/10/02 02:33:03;;;;;;;14.13;9.98;;;;;;;5.78;73.18;101705.22;1794390;78;21101;-69
2021/10/02 02:35:32;;;;;;;13.53;9.90;;;;;;;5.76;73.14;101705.28;1823316;78;21350;-69
2021/10/02 02:37:59;;;;;;;13.48;10.05;;;;;;;5.73;73.13;101706.27;1804295;78;21396;-69
2021/10/02 02:40:26;;;;;;;17.20;10.18;;;;;;;5.71;73.15;101708.55;1819428;78;21030;-69
2021/10/02 02:42:53;;;;;;;14.65;9.80;;;;;;;5.68;73.21;101703.41;1825239;78;21015;-69
2021/10/02 02:45:19;;;;;;;12.40;9.90;;;;;;;5.65;73.25;101708.31;1813265;78;21497;-69
2021/10/02 02:47:53;;;;;;;13.40;9.90;;;;;;;5.64;73.32;101704.45;1800173;78;21741;-69
2021/10/02 02:50:26;;;;;;;11.50;9.75;;;;;;;5.62;73.33;101707.59;1803388;78;20944;-69
2021/10/02 02:53:01;;;;;;;13.50;9.98;;;;;;;5.61;73.42;101709.36;1825765;78;21034;-70
2021/10/02 02:55:36;;;;;;;13.20;10.08;;;;;;;5.61;73.49;101704.57;1788016;78;20959;-69
2021/10/02 02:58:04;;;;;;;12.68;9.63;;;;;;;5.61;73.56;101696.25;1827645;78;21022;-69
2021/10/02 03:00:31;;;;;;;12.75;10.20;;;;;;;5.64;73.63;101697.44;1820649;78;21884;-68
2021/10/02 03:03:07;;;;;;;15.98;10.55;;;;;;;5.68;73.63;101692.45;1796405;80;20944;-68
2021/10/02 03:05:40;;;;;;;20.97;10.72;;;;;;;5.71;73.73;101689.74;1810597;78;20975;-69
2021/10/02 03:08:16;;;;;;;13.78;10.00;;;;;;;5.75;73.79;101694.41;1772530;80;20936;-69
2021/10/02 03:10:50;;;;;;;13.58;10.25;;;;;;;5.78;73.89;101692.11;1804433;78;21025;-69
2021/10/02 03:13:19;;;;;;;14.30;10.13;;;;;;;5.80;73.97;101694.23;1822257;78;20907;-69
2021/10/02 03:15:47;;;;;;;17.05;10.60;;;;;;;5.81;74.07;101691.55;1787556;80;20956;-69
2021/10/02 03:18:16;;;;;;;12.80;10.40;;;;;;;5.84;74.15;101688.80;1746034;81;21485;-69
2021/10/02 03:20:43;;;;;;;16.02;10.40;;;;;;;5.87;74.18;101689.98;1737050;81;21073;-69
2021/10/02 03:23:11;;;;;;;14.18;9.90;;;;;;;5.92;74.19;101691.17;1740902;81;21400;-69
2021/10/02 03:25:38;;;;;;;13.80;10.80;;;;;;;5.94;74.16;101689.33;1770124;81;21840;-69
2021/10/02 03:28:05;;;;;;;12.88;10.32;;;;;;;5.95;74.08;101689.27;1745620;81;21026;-70
2021/10/02 03:30:32;;;;;;;14.28;11.03;;;;;;;5.94;74.02;101680.16;1746866;81;21051;-70
2021/10/02 03:32:58;;;;;;;14.78;11.68;;;;;;;5.95;73.93;101684.48;1750860;81;20960;-70
2021/10/02 03:35:25;;;;;;;16.27;12.13;;;;;;;5.94;73.90;101682.32;1740183;82;21042;-70
2021/10/02 03:37:51;;;;;;;16.77;12.40;;;;;;;5.94;73.82;101682.78;1727692;81;22690;-70
2021/10/02 03:40:19;;;;;;;18.15;13.50;;;;;;;5.92;73.78;101681.99;1758510;81;20948;-70
2021/10/02 03:42:52;;;;;;;18.15;13.32;;;;;;;5.91;73.72;101683.77;1754774;81;21004;-70
2021/10/02 03:45:20;;;;;;;16.15;12.95;;;;;;;5.88;73.72;101684.28;1770852;81;20943;-70
2021/10/02 03:47:46;;;;;;;17.32;13.88;;;;;;;5.88;73.73;101687.76;1756240;81;21094;-69
2021/10/02 03:50:14;;;;;;;19.35;15.08;;;;;;;5.88;73.71;101682.97;1743823;81;21832;-69
2021/10/02 03:52:40;;;;;;;20.35;14.50;;;;;;;5.87;73.71;101679.95;1759828;81;21444;-70
2021/10/02 03:55:09;;;;;;;19.55;14.75;;;;;;;5.85;73.75;101683.95;1745324;81;20924;-69
2021/10/02 03:57:36;;;;;;;21.17;15.70;;;;;;;5.83;73.77;101677.92;1764752;81;20980;-69
2021/10/02 04:00:04;;;;;;;22.22;15.18;;;;;;;5.84;73.76;101690.58;1737940;81;21031;-70
2021/10/02 04:02:32;;;;;;;22.60;15.18;;;;;;;5.84;73.75;101686.64;1745984;81;21075;-69
2021/10/02 04:04:59;;;;;;;20.72;14.95;;;;;;;5.82;73.79;101681.92;1756616;81;20936;-70
2021/10/02 04:07:26;;;;;;;20.23;14.33;;;;;;;5.81;73.93;101688.08;1765083;81;20992;-70
2021/10/02 04:09:52;;;;;;;19.45;15.75;;;;;;;5.80;74.03;101686.38;1764560;81;21023;-71
2021/10/02 04:12:19;;;;;;;23.30;15.45;;;;;;;5.81;74.06;101687.63;1748237;81;20932;-70
2021/10/02 04:14:47;;;;;;;23.02;15.83;;;;;;;5.83;74.08;101690.18;1762099;81;21817;-71
2021/10/02 04:17:16;;;;;;;19.87;14.58;;;;;;;5.84;74.11;101691.89;1765157;81;20920;-70
2021/10/02 04:19:44;;;;;;;20.85;15.10;;;;;;;5.84;74.12;101694.05;1764772;81;21565;-70
2021/10/02 04:22:12;;;;;;;27.32;15.30;;;;;;;5.86;74.10;101697.92;1761801;81;21043;-71
2021/10/02 04:24:40;;;;;;;23.20;15.10;;;;;;;5.85;74.15;101691.82;1762612;81;20991;-69
2021/10/02 04:27:08;;;;;;;20.95;15.55;;;;;;;5.88;74.16;101702.18;1764411;81;22864;-70
2021/10/02 04:29:36;;;;;;;21.52;16.10;;;;;;;5.88;74.20;101696.94;1764956;81;20992;-70
2021/10/02 04:32:03;;;;;;;25.80;17.35;;;;;;;5.92;74.23;101701.20;1727590;81;21550;-70
2021/10/02 04:34:30;;;;;;;26.60;16.48;;;;;;;5.94;74.27;101707.23;1754053;81;21399;-69
2021/10/02 04:36:57;;;;;;;23.62;16.37;;;;;;;5.98;74.29;101704.91;1756918;81;21047;-69
2021/10/02 04:39:25;;;;;;;23.95;16.77;;;;;;;6.02;74.28;101704.31;1765009;81;22347;-69
2021/10/02 04:41:53;;;;;;;27.30;17.15;;;;;;;6.03;74.35;101709.95;1762423;81;21031;-70
2021/10/02 04:44:21;;;;;;;29.45;19.50;;;;;;;6.05;74.41;101704.64;1740662;81;20972;-69
2021/10/02 04:46:48;;;;;;;34.13;19.20;;;;;;;6.10;74.47;101705.34;1750321;81;21438;-69
2021/10/02 04:49:14;;;;;;;29.30;20.32;;;;;;;6.17;74.50;101704.16;1759309;80;21015;-69
2021/10/02 04:51:41;;;;;;;26.23;19.07;;;;;;;6.26;74.42;101704.64;1740929;81;22219;-69
2021/10/02 04:54:09;;;;;;;30.27;20.00;;;;;;;6.35;74.31;101699.94;1734525;81;20933;-69
2021/10/02 04:56:36;;;;;;;30.60;19.75;;;;;;;6.45;74.18;101706.52;1740267;81;21071;-69
2021/10/02 04:59:02;;;;;;;29.57;18.82;;;;;;;6.53;74.00;101698.73;1764227;81;21078;-70
2021/10/02 05:01:29;;;;;;;26.77;18.80;;;;;;;6.60;73.89;101700.19;1758712;81;21386;-69
2021/10/02 05:03:57;;;;;;;29.63;18.05;;;;;;;6.67;73.83;101702.11;1740335;81;21821;-70
2021/10/02 05:06:24;;;;;;;26.57;17.70;;;;;;;6.73;73.75;101704.92;1756279;81;21031;-70
2021/10/02 05:08:50;;;;;;;27.65;18.10;;;;;;;6.78;73.64;101706.44;1760972;81;21569;-70
2021/10/02 05:11:19;;;;;;;27.95;17.62;;;;;;;6.88;73.49;101706.91;1744393;81;20963;-71
2021/10/02 05:13:45;;;;;;;30.80;18.12;;;;;;;6.99;73.29;101710.38;1754356;81;21039;-71
2021/10/02 05:16:11;;;;;;;25.70;17.90;;;;;;;7.07;73.12;101713.54;1742834;81;21837;-75
2021/10/02 05:18:38;;;;;;;28.00;18.12;;;;;;;7.17;72.93;101703.02;1750901;81;20928;-74
2021/10/02 05:21:05;;;;;;;27.20;17.65;;;;;;;7.25;72.79;101700.91;1752701;81;21044;-74
2021/10/02 05:23:33;;;;;;;26.93;18.50;;;;;;;7.33;72.65;101702.70;1751479;81;21023;-75
2021/10/02 05:25:59;;;;;;;28.17;18.27;;;;;;;7.42;72.45;101708.02;1736644;81;21438;-75
2021/10/02 05:28:26;;;;;;;26.15;18.20;;;;;;;7.51;72.29;101707.61;1763120;81;21829;-74
2021/10/02 05:30:52;;;;;;;31.95;18.87;;;;;;;7.61;72.14;101708.04;1764919;81;21023;-75
2021/10/02 05:33:19;;;;;;;26.62;18.73;;;;;;;7.72;72.03;101705.77;1754669;81;20984;-75
2021/10/02 05:35:45;;;;;;;26.95;18.27;;;;;;;7.83;72.03;101710.09;1734488;82;21427;-75
2021/10/02 05:38:12;;;;;;;30.15;18.70;;;;;;;7.93;72.02;101706.56;1750646;81;21530;-75
2021/10/02 05:40:39;;;;;;;25.02;18.35;;;;;;;8.02;72.01;101704.36;1735684;81;22656;-75
2021/10/02 05:43:06;;;;;;;28.40;18.15;;;;;;;8.14;71.98;101709.95;1734993;81;21462;-74
2021/10/02 05:45:32;;;;;;;28.52;18.17;;;;;;;8.25;71.88;101708.97;1743115;81;21423;-71
2021/10/02 05:47:59;;;;;;;29.77;17.70;;;;;;;8.36;71.76;101709.79;1752308;81;20953;-73
2021/10/02 05:50:25;;;;;;;28.52;16.62;;;;;;;8.47;71.54;101710.11;1755062;81;20988;-73
2021/10/02 05:52:52;;;;;;;24.72;15.72;;;;;;;8.59;71.28;101714.80;1763180;81;21833;-76
2021/10/02 05:55:18;;;;;;;25.17;13.15;;;;;;;8.73;71.00;101712.77;1746677;81;21047;-75
2021/10/02 05:57:45;;;;;;;23.75;14.28;;;;;;;8.85;70.50;101713.00;1745397;81;21035;-74
2021/10/02 06:00:12;;;;;;;20.12;12.63;;;;;;;8.97;70.05;101714.15;1744470;81;21008;-74
2021/10/02 06:02:39;;;;;;;19.00;12.43;;;;;;;9.09;69.51;101712.69;1741262;81;21069;-72
2021/10/02 06:05:06;;;;;;;25.95;12.47;;;;;;;9.21;68.78;101719.09;1729705;80;22217;-73
2021/10/02 06:07:34;;;;;;;22.37;12.05;;;;;;;9.30;68.20;101719.94;1755365;81;21027;-73
2021/10/02 06:10:02;;;;;;;20.20;11.80;;;;;;;9.42;66.68;101727.19;1742339;81;21023;-73
2021/10/02 06:12:33;;;;;;;19.70;11.80;;;;;;;9.55;65.70;101728.70;1748764;81;21258;-73
2021/10/02 06:14:59;;;;;;;18.00;10.90;;;;;;;9.66;64.76;101719.77;1767083;80;21070;-74
2021/10/02 06:17:25;;;;;;;15.23;10.55;;;;;;;9.76;64.03;101714.38;1748131;81;22178;-74
2021/10/02 06:19:52;;;;;;;15.30;9.28;;;;;;;9.86;63.23;101714.72;1755231;80;21000;-73
2021/10/02 06:22:19;;;;;;;15.83;8.40;;;;;;;9.95;62.60;101716.86;1752310;81;21042;-71
2021/10/02 06:24:45;;;;;;;16.10;9.50;;;;;;;10.02;61.25;101715.08;1741660;81;21011;-72
2021/10/02 06:27:12;;;;;;;14.75;9.00;;;;;;;10.16;60.96;101722.25;1738569;81;21501;-73
2021/10/02 06:29:38;;;;;;;16.40;9.15;;;;;;;10.25;60.44;101721.77;1733840;81;21789;-72
2021/10/02 06:32:06;;;;;;;18.07;9.73;;;;;;;10.37;60.08;101728.14;1751757;81;21000;-72
2021/10/02 06:34:33;;;;;;;13.22;9.00;;;;;;;10.49;59.80;101721.30;1762981;81;21066;-71
2021/10/02 06:37:00;;;;;;;15.15;9.30;;;;;;;10.59;59.73;101725.11;1731730;81;21008;-71
2021/10/02 06:39:26;;;;;;;14.33;8.63;;;;;;;10.68;59.31;101725.05;1761898;81;20991;-71
2021/10/02 06:41:52;;;;;;;14.58;9.53;;;;;;;10.80;58.38;101719.88;1752758;81;22159;-74
2021/10/02 06:44:20;;;;;;;15.23;8.63;;;;;;;10.92;58.03;101719.65;1746735;81;21481;-72
2021/10/02 06:46:48;;;;;;;22.32;9.05;;;;;;;11.00;57.96;101714.77;1739614;81;21006;-72
2021/10/02 06:49:15;;;;;;;13.55;9.25;;;;;;;11.11;57.65;101715.44;1741614;81;21047;-72
2021/10/02 06:51:41;;;;;;;18.25;9.90;;;;;;;11.23;58.25;101711.19;1763813;80;21035;-70
2021/10/02 06:54:08;;;;;;;13.43;9.30;;;;;;;11.36;58.76;101710.34;1725362;83;21838;-73
2021/10/02 06:56:36;;;;;;;15.95;9.85;;;;;;;11.47;59.58;101709.20;1744131;81;21027;-72
2021/10/02 06:59:03;;;;;;;13.05;8.93;;;;;;;11.58;60.29;101711.65;1731820;81;21493;-72
2021/10/02 07:01:31;;;;;;;14.90;8.45;;;;;;;11.65;61.09;101709.86;1748956;81;21012;-71
2021/10/02 07:03:58;;;;;;;14.18;8.98;;;;;;;11.77;61.31;101710.88;1777029;80;21411;-68
2021/10/02 07:06:26;;;;;;;16.35;8.73;;;;;;;11.88;61.47;101711.58;1748038;81;21828;-69
2021/10/02 07:08:53;;;;;;;12.43;9.30;;;;;;;11.97;61.38;101710.52;1732639;81;20996;-74
2021/10/02 07:11:21;;;;;;;11.93;8.25;;;;;;;12.08;61.23;101712.95;1730526;81;20980;-71
2021/10/02 07:13:48;;;;;;;11.45;8.50;;;;;;;12.17;61.23;101710.55;1755368;81;21294;-74
2021/10/02 07:16:16;;;;;;;10.75;8.20;;;;;;;12.26;61.31;101714.41;1736738;80;21003;-73
2021/10/02 07:18:43;;;;;;;13.72;8.58;;;;;;;12.37;60.93;101710.58;1735276;81;21847;-72
2021/10/02 07:21:11;;;;;;;10.25;8.33;;;;;;;12.45;60.68;101710.93;1736568;81;21515;-73
2021/10/02 07:23:39;;;;;;;13.43;9.23;;;;;;;12.53;61.03;101714.38;1727591;81;21007;-74
2021/10/02 07:26:07;;;;;;;14.30;10.08;;;;;;;12.57;61.42;101711.44;1731148;81;21078;-75
2021/10/02 07:28:35;;;;;;;15.28;10.58;;;;;;;12.60;61.81;101711.22;1725893;81;21048;-74
2021/10/02 07:31:02;;;;;;;13.45;10.38;;;;;;;12.66;62.18;101707.80;1725421;83;21844;-72
2021/10/02 07:33:30;;;;;;;17.30;11.00;;;;;;;12.74;62.71;101707.66;1752362;81;21412;-74
2021/10/02 07:35:56;;;;;;;14.15;10.88;;;;;;;12.86;63.02;101711.28;1737927;81;21534;-73
2021/10/02 07:38:24;;;;;;;12.30;9.90;;;;;;;13.00;62.67;101706.36;1736481;81;21004;-75
2021/10/02 07:40:51;;;;;;;12.50;10.18;;;;;;;13.08;62.24;101709.33;1736897;81;21090;-73
2021/10/02 07:43:18;;;;;;;17.73;10.82;;;;;;;13.18;61.79;101703.77;1737302;81;21831;-76
2021/10/02 07:45:44;;;;;;;14.80;10.30;;;;;;;13.25;61.59;101710.39;1739441;81;21486;-74
2021/10/02 07:48:17;;;;;;;12.85;9.45;;;;;;;13.28;60.28;101710.64;1755417;80;21012;-73
2021/10/02 07:50:44;;;;;;;13.53;8.98;;;;;;;13.24;59.72;101705.19;1741992;80;21067;-73
2021/10/02 07:53:10;;;;;;;12.53;8.68;;;;;;;13.22;59.33;101702.65;1741690;81;21574;-73
2021/10/02 07:55:39;;;;;;;12.33;7.75;;;;;;;13.21;58.10;101711.53;1746489;80;22157;-73
2021/10/02 07:58:06;;;;;;;12.30;7.72;;;;;;;13.24;57.53;101704.71;1726154;81;21031;-73
2021/10/02 08:00:34;;;;;;;13.55;7.10;;;;;;;13.26;56.39;101705.92;1735319;81;21439;-73
2021/10/02 08:03:01;;;;;;;9.75;6.65;;;;;;;13.27;55.33;101707.63;1748549;81;21060;-72
2021/10/02 08:05:27;;;;;;;10.05;7.00;;;;;;;13.31;54.69;101709.94;1755411;81;21019;-73
2021/10/02 08:07:54;;;;;;;15.25;7.10;;;;;;;13.33;54.34;101702.75;1744636;81;21820;-75
2021/10/02 08:10:25;;;;;;;10.03;6.80;;;;;;;13.40;54.45;101699.16;1733587;82;21542;-75
2021/10/02 08:12:51;;;;;;;9.68;5.78;;;;;;;13.48;53.65;101706.11;1734423;81;21509;-74
2021/10/02 08:15:19;;;;;;;10.38;6.08;;;;;;;13.53;52.24;101697.84;1764049;81;21031;-74
2021/10/02 08:17:45;;;;;;;10.03;5.42;;;;;;;13.55;51.94;101692.79;1750876;81;21011;-74
2021/10/02 08:20:17;;;;;;;7.30;4.85;;;;;;;13.59;51.75;101694.25;1733752;81;21373;-75
2021/10/02 08:22:49;;;;;;;6.87;3.95;;;;;;;13.66;50.89;101699.98;1740136;81;21031;-74
2021/10/02 08:25:18;;;;;;;6.00;3.58;;;;;;;13.71;50.31;101692.55;1708073;82;21023;-75
2021/10/02 08:27:45;;;;;;;5.28;3.90;;;;;;;13.81;48.89;101700.23;1749360;81;21028;-74
2021/10/02 08:30:15;;;;;;;7.35;3.67;;;;;;;13.85;47.66;101704.34;1743938;81;21002;-74
2021/10/02 08:32:41;;;;;;;7.62;4.10;;;;;;;13.85;47.66;101698.19;1726999;81;22839;-75
2021/10/02 08:35:09;;;;;;;6.33;4.20;;;;;;;13.83;47.95;101694.80;1766117;80;21031;-74
2021/10/02 08:37:38;;;;;;;4.85;3.72;;;;;;;13.85;48.64;101697.70;1770734;80;21027;-75
2021/10/02 08:40:08;;;;;;;5.87;4.10;;;;;;;13.89;48.15;101690.36;1726344;81;20980;-75
2021/10/02 08:42:39;;;;;;;5.37;3.25;;;;;;;13.93;48.19;101695.35;1741875;81;21062;-73
2021/10/02 08:45:07;;;;;;;5.08;3.92;;;;;;;13.96;47.31;101699.10;1730723;81;21853;-72
2021/10/02 08:47:40;;;;;;;6.37;3.87;;;;;;;13.95;47.30;101693.91;1726698;81;21017;-74
2021/10/02 08:50:08;;;;;;;4.53;3.50;;;;;;;13.87;47.52;101693.12;1725577;83;21031;-76
2021/10/02 08:52:36;;;;;;;5.28;3.60;;;;;;;13.86;46.86;101690.59;1727505;81;21078;-74
2021/10/02 08:55:06;;;;;;;5.95;3.83;;;;;;;13.89;47.82;101689.88;1721173;82;21016;-72
2021/10/02 08:57:35;;;;;;;8.65;4.05;;;;;;;13.93;48.08;101692.70;1742726;81;22212;-72
2021/10/02 09:00:06;;;;;;;6.28;3.95;;;;;;;14.01;48.90;101690.33;1739314;81;21015;-74
2021/10/02 09:02:33;;;;;;;7.03;4.08;;;;;;;14.15;48.88;101691.13;1732672;81;21035;-72
2021/10/02 09:05:03;;;;;;;5.05;3.60;;;;;;;14.27;46.72;101691.05;1760510;80;21031;-72
2021/10/02 09:07:30;;;;;;;4.22;3.30;;;;;;;14.27;46.21;101695.05;1725376;83;21480;-72
2021/10/02 09:10:01;;;;;;;4.12;3.10;;;;;;;14.32;45.85;101686.75;1729026;81;21184;-72
2021/10/02 09:12:26;;;;;;;4.87;3.27;;;;;;;14.35;44.92;101693.64;1729899;81;21016;-74
2021/10/02 09:14:53;;;;;;;6.67;4.05;;;;;;;14.36;44.98;101689.53;1750868;81;21029;-72
2021/10/02 09:17:22;;;;;;;7.42;4.00;;;;;;;14.35;44.69;101696.30;1747126;81;21490;-74
2021/10/02 09:19:49;;;;;;;8.35;4.00;;;;;;;14.30;45.96;101686.86;1725672;81;21074;-75
2021/10/02 09:22:18;;;;;;;4.33;3.10;;;;;;;14.43;47.30;101688.12;1735145;81;21740;-72
2021/10/02 09:24:47;;;;;;;4.62;2.80;;;;;;;14.63;45.85;101687.13;1747850;81;21003;-76
2021/10/02 09:27:25;;;;;;;4.28;3.02;;;;;;;14.75;44.48;101688.38;1736222;81;21074;-75
2021/10/02 09:29:57;;;;;;;7.65;2.67;;;;;;;14.84;44.01;101686.34;1745123;81;21012;-74
2021/10/02 09:32:38;;;;;;;3.33;2.27;;;;;;;14.93;43.15;101683.46;1749640;80;21284;-74
2021/10/02 09:35:12;;;;;;;5.03;2.45;;;;;;;15.03;42.02;101674.29;1736082;80;21549;-76
2021/10/02 09:37:43;;;;;;;4.03;2.25;;;;;;;15.12;41.58;101678.89;1744982;80;21047;-75
2021/10/02 09:40:17;;;;;;;5.70;2.58;;;;;;;15.21;40.90;101682.17;1751707;81;21107;-73
2021/10/02 09:42:51;;;;;;;4.33;2.75;;;;;;;15.23;40.83;101676.72;1751543;81;21072;-75
2021/10/02 09:45:21;;;;;;;4.37;2.70;;;;;;;15.27;41.89;101680.38;1750488;80;20944;-75
2021/10/02 09:47:51;;;;;;;4.22;2.55;;;;;;;15.44;42.06;101673.70;1747156;81;21870;-76
2021/10/02 09:50:21;;;;;;;3.20;2.40;;;;;;;15.60;39.95;101670.67;1740727;81;21043;-75
2021/10/02 09:52:54;;;;;;;2.98;2.40;;;;;;;15.68;39.19;101665.62;1748782;82;21000;-75
2021/10/02 09:55:28;;;;;;;3.17;2.10;;;;;;;15.72;38.98;101656.39;1774495;80;20932;-75
2021/10/02 09:58:04;;;;;;;2.65;2.00;;;;;;;15.74;37.73;101658.47;1776245;80;21063;-76
2021/10/02 10:00:45;;;;;;;5.85;2.22;;;;;;;15.81;38.60;101657.47;1765865;80;20962;-74
2021/10/02 10:03:15;;;;;;;7.17;2.77;;;;;;;15.98;37.45;101655.13;1765940;79;20979;-75
2021/10/02 10:05:44;;;;;;;4.75;2.50;;;;;;;16.07;36.92;101656.69;1753326;80;20982;-74
2021/10/02 10:08:13;;;;;;;3.42;2.10;;;;;;;16.11;35.94;101657.63;1749733;80;21086;-76
2021/10/02 10:10:41;;;;;;;2.87;2.22;;;;;;;16.08;36.55;101653.05;1788817;78;20955;-74
2021/10/02 10:13:19;;;;;;;16.80;3.50;;;;;;;16.08;36.59;101654.37;1720506;81;22681;-74
2021/10/02 10:15:49;;;;;;;5.87;3.67;;;;;;;16.16;37.37;101650.11;1735785;81;21040;-75
2021/10/02 10:18:26;;;;;;;4.10;2.90;;;;;;;16.28;37.19;101645.09;1729281;81;21010;-75
2021/10/02 10:20:59;;;;;;;3.50;2.50;;;;;;;16.45;36.78;101646.35;1726692;81;21027;-75
2021/10/02 10:23:39;;;;;;;3.40;2.20;;;;;;;16.58;36.14;101640.82;1744761;81;20987;-76
2021/10/02 10:26:17;;;;;;;4.80;2.10;;;;;;;16.64;36.25;101642.13;1751101;81;22382;-73
2021/10/02 10:28:47;;;;;;;5.25;2.00;;;;;;;16.68;35.89;101643.55;1758339;81;21026;-76
2021/10/02 10:31:24;;;;;;;2.42;2.00;;;;;;;16.70;36.36;101633.16;1735366;81;21086;-75
2021/10/02 10:33:54;;;;;;;5.60;2.00;;;;;;;16.76;35.84;101629.95;1742186;81;20932;-79
2021/10/02 10:36:24;;;;;;;6.62;2.30;;;;;;;16.74;35.74;101630.58;1741551;81;21376;-77
2021/10/02 10:38:51;;;;;;;4.58;2.55;;;;;;;16.73;36.22;101627.55;1761657;80;21816;-73
2021/10/02 10:41:21;;;;;;;5.12;2.60;;;;;;;16.82;37.00;101626.77;1781576;80;20937;-72
2021/10/02 10:43:50;;;;;;;3.17;2.50;;;;;;;17.00;37.22;101621.67;1744929;80;21399;-73
2021/10/02 10:46:21;;;;;;;6.92;2.50;;;;;;;17.19;36.68;101620.08;1765209;80;21044;-73
2021/10/02 10:48:49;;;;;;;5.33;2.40;;;;;;;17.32;36.27;101609.50;1748061;80;21501;-73
2021/10/02 10:51:19;;;;;;;4.15;2.33;;;;;;;17.30;36.22;101607.46;1726735;81;21831;-73
2021/10/02 10:53:49;;;;;;;3.70;2.42;;;;;;;17.27;35.91;101603.70;1746745;81;20972;-73
2021/10/02 10:56:39;;;;;;;5.95;2.60;;;;;;;17.22;36.45;101605.11;1735851;81;21035;-73
2021/10/02 10:59:05;;;;;;;3.47;2.72;;;;;;;17.25;36.58;101603.50;1743866;81;21031;-73
2021/10/02 11:01:38;;;;;;;7.40;2.58;;;;;;;17.36;37.26;101603.39;1825601;78;20940;-73
2021/10/02 11:04:07;;;;;;;5.05;2.42;;;;;;;17.57;35.82;101601.50;1821085;78;21611;-74
2021/10/02 11:06:59;;;;;;;3.80;2.50;;;;;;;17.58;36.25;101597.84;1818897;78;21074;-73
2021/10/02 11:09:38;;;;;;;5.97;2.83;;;;;;;17.60;35.33;101594.53;1819273;78;21066;-74
2021/10/02 11:12:12;;;;;;;7.65;2.95;;;;;;;17.59;35.67;101603.54;1826380;78;21067;-75
2021/10/02 11:14:59;;;;;;;4.47;2.75;;;;;;;17.60;35.62;101601.22;1823021;78;20979;-74
2021/10/02 11:17:35;;;;;;;4.03;2.40;;;;;;;17.60;35.35;101602.55;1813165;78;22266;-74
2021/10/02 11:20:30;;;;;;;3.72;2.30;;;;;;;17.45;35.04;101594.06;1802742;78;21482;-74
2021/10/02 11:23:40;;;;;;;7.53;2.67;;;;;;;17.43;35.83;101590.70;1795881;78;20987;-73
2021/10/02 11:26:24;;;;;;;3.72;2.67;;;;;;;17.52;36.41;101595.71;1802107;78;21042;-73
2021/10/02 11:29:04;;;;;;;3.52;2.62;;;;;;;17.78;36.11;101597.91;1806705;78;21029;-74
2021/10/02 11:31:36;;;;;;;2.58;2.30;;;;;;;17.93;35.63;101593.83;1825333;78;21513;-75
2021/10/02 11:34:01;;;;;;;4.65;2.37;;;;;;;18.05;35.11;101596.73;1820381;78;21026;-74
2021/10/02 11:36:36;;;;;;;3.90;2.75;;;;;;;18.12;35.00;101592.49;1826355;78;21080;-74
2021/10/02 11:39:30;;;;;;;2.72;2.25;;;;;;;18.13;34.47;101590.66;1804014;78;21084;-78
2021/10/02 11:42:15;;;;;;;6.22;2.50;;;;;;;18.01;34.34;101588.63;1804117;78;21572;-78
2021/10/02 11:44:44;;;;;;;6.80;2.62;;;;;;;17.91;35.10;101591.80;1818854;78;21748;-81
2021/10/02 11:47:37;;;;;;;4.67;2.95;;;;;;;17.91;34.85;101587.78;1823522;78;20947;-78
2021/10/02 11:50:19;;;;;;;4.87;2.70;;;;;;;17.93;35.34;101575.96;1801949;78;21445;-78
2021/10/02 11:52:54;;;;;;;5.20;2.80;;;;;;;18.13;35.45;101581.30;1795859;78;21011;-80
2021/10/02 11:55:44;;;;;;;2.62;2.40;;;;;;;18.34;34.76;101583.35;1811399;78;21406;-79
2021/10/02 11:58:12;;;;;;;3.45;2.40;;;;;;;18.42;34.78;101577.27;1805810;78;20963;-75
2021/10/02 12:00:53;;;;;;;7.47;2.80;;;;;;;18.47;34.33;101574.52;1812076;78;21379;-75
2021/10/02 12:03:31;;;;;;;4.37;2.72;;;;;;;18.49;34.48;101580.56;1813920;78;21054;-78
2021/10/02 12:06:01;;;;;;;3.80;2.35;;;;;;;18.56;34.07;101571.48;1777289;80;21439;-76
2021/10/02 12:08:31;;;;;;;5.22;2.85;;;;;;;18.66;34.41;101566.97;1797811;78;20998;-72
2021/10/02 12:11:11;;;;;;;4.60;2.52;;;;;;;18.77;33.31;101569.47;1808371;77;21465;-73
2021/10/02 12:13:51;;;;;;;3.02;2.50;;;;;;;18.74;34.07;101567.59;1800349;78;20967;-75
2021/10/02 12:16:28;;;;;;;4.62;2.62;;;;;;;18.83;34.39;101563.55;1801972;78;21421;-76
2021/10/02 12:19:08;;;;;;;4.83;2.67;;;;;;;18.99;33.52;101564.73;1809826;78;20991;-73
2021/10/02 12:21:44;;;;;;;3.35;2.83;;;;;;;18.99;33.19;101565.58;1764244;78;21050;-75
2021/10/02 12:24:26;;;;;;;4.03;2.40;;;;;;;18.88;33.10;101560.41;1798065;78;22452;-73
2021/10/02 12:27:06;;;;;;;3.12;2.60;;;;;;;18.90;33.17;101562.44;1800889;78;20988;-73
2021/10/02 12:29:40;;;;;;;4.72;2.67;;;;;;;18.92;32.53;101557.81;1798369;78;21066;-76
2021/10/02 12:32:14;;;;;;;4.28;2.40;;;;;;;18.90;33.39;101558.42;1795211;78;20995;-75
2021/10/02 12:34:49;;;;;;;4.65;2.40;;;;;;;19.06;32.43;101551.11;1804856;78;20951;-75